createdAt,value
2022-08-27T00:05:44.551Z,32.46
2022-08-27T00:08:18.647Z,32.49
2022-08-27T00:10:46.180Z,32.48
2022-08-27T00:13:15.776Z,32.46
2022-08-27T00:15:43.712Z,32.43
2022-08-27T00:18:11.389Z,32.47
2022-08-27T00:20:40.338Z,32.49
2022-08-27T00:26:54.878Z,32.36
2022-08-27T00:29:22.393Z,32.28
2022-08-27T00:31:53.490Z,32.24
2022-08-27T00:34:23.839Z,32.25
2022-08-27T00:36:53.030Z,32.23
2022-08-27T00:39:21.120Z,32.18
2022-08-27T00:41:48.622Z,32.13
2022-08-27T00:47:05.618Z,32.09
2022-08-27T00:49:42.182Z,32.09
2022-08-27T00:52:19.664Z,32.06
2022-08-27T00:54:49.104Z,32.02
2022-08-27T00:57:19.804Z,31.99
2022-08-27T00:59:49.347Z,31.98
2022-08-27T01:02:19.844Z,31.97
2022-08-27T01:07:41.465Z,31.94
2022-08-27T01:10:19.669Z,31.91
2022-08-27T01:12:53.968Z,31.86
2022-08-27T01:15:23.646Z,31.85
2022-08-27T01:17:51.992Z,31.84
2022-08-27T01:20:34.820Z,31.89
2022-08-27T01:23:05.240Z,31.86
2022-08-27T01:31:51.425Z,31.80
2022-08-27T01:34:20.454Z,31.79
2022-08-27T01:36:49.735Z,31.76
2022-08-27T01:39:22.206Z,31.70
2022-08-27T01:41:52.449Z,31.66
2022-08-27T01:44:21.051Z,31.64
2022-08-27T01:46:50.327Z,31.60
2022-08-27T01:54:20.637Z,31.49
2022-08-27T01:56:49.928Z,31.47
2022-08-27T01:59:19.281Z,31.51
2022-08-27T02:01:51.457Z,31.58
2022-08-27T02:04:20.902Z,31.63
2022-08-27T02:06:50.140Z,31.63
2022-08-27T02:09:19.525Z,31.59
2022-08-27T02:11:49.206Z,31.56
2022-08-27T02:19:22.133Z,31.64
2022-08-27T02:21:50.805Z,31.66
2022-08-27T02:24:19.664Z,31.66
2022-08-27T02:26:48.735Z,31.65
2022-08-27T02:29:16.096Z,31.62
2022-08-27T02:31:43.647Z,31.66
2022-08-27T02:34:11.072Z,31.66
2022-08-27T02:39:21.574Z,31.62
2022-08-27T02:41:50.725Z,31.64
2022-08-27T02:44:20.086Z,31.63
2022-08-27T02:46:50.055Z,31.62
2022-08-27T02:49:21.386Z,31.62
2022-08-27T02:51:56.232Z,31.60
2022-08-27T02:54:25.161Z,31.50
2022-08-27T02:59:32.763Z,31.43
2022-08-27T03:02:01.245Z,31.47
2022-08-27T03:04:30.516Z,31.50
2022-08-27T03:06:59.822Z,31.50
2022-08-27T03:09:28.319Z,31.48
2022-08-27T03:11:56.661Z,31.48
2022-08-27T03:14:26.117Z,31.45
2022-08-27T03:19:50.570Z,31.71
2022-08-27T03:22:19.403Z,31.51
2022-08-27T03:24:46.898Z,31.46
2022-08-27T03:27:16.266Z,31.42
2022-08-27T03:29:43.610Z,31.42
2022-08-27T03:32:11.139Z,31.40
2022-08-27T03:34:44.867Z,31.38
2022-08-27T03:37:12.909Z,31.33
2022-08-27T03:44:51.892Z,31.27
2022-08-27T03:47:23.680Z,31.26
2022-08-27T03:49:51.221Z,31.20
2022-08-27T03:52:20.803Z,31.18
2022-08-27T03:54:50.186Z,31.18
2022-08-27T03:57:19.386Z,31.15
2022-08-27T03:59:46.852Z,31.13
2022-08-27T04:02:16.264Z,31.13
2022-08-27T04:09:51.437Z,31.07
2022-08-27T04:12:21.278Z,31.05
2022-08-27T04:14:50.698Z,31.01
2022-08-27T04:17:20.069Z,30.97
2022-08-27T04:19:49.314Z,30.98
2022-08-27T04:22:16.672Z,30.96
2022-08-27T04:24:45.488Z,30.91
2022-08-27T04:35:02.890Z,30.85
2022-08-27T04:37:33.040Z,30.84
2022-08-27T04:40:01.094Z,30.81
2022-08-27T04:42:31.124Z,30.80
2022-08-27T04:45:00.385Z,30.78
2022-08-27T04:47:29.183Z,30.76
2022-08-27T04:49:56.742Z,30.76
2022-08-27T04:52:27.022Z,30.74
2022-08-27T05:00:01.094Z,30.70
2022-08-27T05:02:30.445Z,30.71
2022-08-27T05:04:59.855Z,30.68
2022-08-27T05:07:29.039Z,30.65
2022-08-27T05:09:56.497Z,30.62
2022-08-27T05:12:24.046Z,30.62
2022-08-27T05:14:51.415Z,30.60
2022-08-27T05:22:12.765Z,30.57
2022-08-27T05:24:41.129Z,30.55
2022-08-27T05:27:13.082Z,30.52
2022-08-27T05:29:40.994Z,30.47
2022-08-27T05:32:10.626Z,30.48
2022-08-27T05:34:40.214Z,30.46
2022-08-27T05:37:11.238Z,30.45
2022-08-27T05:39:41.190Z,30.42
2022-08-27T05:47:21.179Z,30.39
2022-08-27T05:49:53.526Z,30.37
2022-08-27T05:52:21.853Z,30.35
2022-08-27T05:54:51.203Z,30.33
2022-08-27T05:57:20.591Z,30.30
2022-08-27T06:00:06.553Z,30.29
2022-08-27T06:07:59.560Z,30.18
2022-08-27T06:10:26.986Z,30.16
2022-08-27T06:12:56.996Z,30.15
2022-08-27T06:15:36.037Z,30.12
2022-08-27T06:18:05.162Z,30.10
2022-08-27T06:20:32.526Z,30.09
2022-08-27T06:23:01.119Z,30.09
2022-08-27T06:28:12.138Z,30.06
2022-08-27T06:30:41.205Z,30.05
2022-08-27T06:33:10.483Z,30.02
2022-08-27T06:35:40.020Z,30.00
2022-08-27T06:38:09.739Z,29.98
2022-08-27T06:40:41.976Z,29.97
2022-08-27T06:43:12.099Z,29.96
2022-08-27T06:45:40.989Z,29.92
2022-08-27T06:52:24.267Z,30.16
2022-08-27T06:54:51.891Z,30.02
2022-08-27T06:57:21.214Z,30.00
2022-08-27T06:59:50.522Z,29.97
2022-08-27T07:02:20.505Z,29.96
2022-08-27T07:04:50.647Z,29.94
2022-08-27T07:07:30.118Z,29.89
2022-08-27T07:12:41.710Z,29.85
2022-08-27T07:15:11.273Z,29.85
2022-08-27T07:17:40.993Z,29.83
2022-08-27T07:20:12.865Z,29.85
2022-08-27T07:22:42.522Z,29.82
2022-08-27T07:25:15.351Z,29.82
2022-08-27T07:27:42.918Z,29.79
2022-08-27T07:34:40.182Z,29.74
2022-08-27T07:37:09.544Z,29.73
2022-08-27T07:39:37.037Z,29.71
2022-08-27T07:42:24.287Z,29.73
2022-08-27T07:44:51.761Z,29.72
2022-08-27T07:47:21.239Z,29.70
2022-08-27T07:49:50.524Z,29.68
2022-08-27T07:56:09.782Z,29.65
2022-08-27T07:58:37.166Z,29.63
2022-08-27T08:01:10.240Z,29.59
2022-08-27T08:03:39.925Z,29.54
2022-08-27T08:06:12.256Z,29.55
2022-08-27T08:08:41.942Z,29.53
2022-08-27T08:11:14.172Z,29.52
2022-08-27T08:16:29.594Z,29.48
2022-08-27T08:19:00.586Z,29.48
2022-08-27T08:21:29.829Z,29.48
2022-08-27T08:23:57.334Z,29.48
2022-08-27T08:26:26.759Z,29.46
2022-08-27T08:28:54.281Z,29.45
2022-08-27T08:31:23.860Z,29.43
2022-08-27T08:36:33.121Z,29.42
2022-08-27T08:39:01.008Z,29.41
2022-08-27T08:41:37.419Z,29.42
2022-08-27T08:44:17.097Z,29.40
2022-08-27T08:46:50.478Z,29.38
2022-08-27T08:49:42.287Z,29.39
2022-08-27T08:52:30.609Z,29.36
2022-08-27T08:58:17.388Z,29.34
2022-08-27T09:00:56.615Z,29.32
2022-08-27T09:03:24.595Z,29.29
2022-08-27T09:06:02.122Z,29.29
2022-08-27T09:08:42.404Z,29.28
2022-08-27T09:11:21.657Z,29.23
2022-08-27T09:13:55.575Z,29.24
2022-08-27T09:21:07.517Z,29.20
2022-08-27T09:24:02.804Z,29.14
2022-08-27T09:26:41.353Z,29.12
2022-08-27T09:29:20.983Z,29.12
2022-08-27T09:32:12.378Z,29.13
2022-08-27T09:34:43.817Z,29.11
2022-08-27T09:37:34.412Z,29.12
2022-08-27T09:45:55.159Z,29.02
2022-08-27T09:48:31.038Z,29.01
2022-08-27T09:51:23.620Z,29.01
2022-08-27T09:54:01.942Z,28.99
2022-08-27T09:56:50.761Z,29.02
2022-08-27T09:59:30.479Z,29.02
2022-08-27T10:02:12.970Z,29.02
2022-08-27T10:12:55.204Z,28.94
2022-08-27T10:15:31.564Z,28.92
2022-08-27T10:18:21.108Z,28.93
2022-08-27T10:21:20.937Z,28.93
2022-08-27T10:24:13.829Z,28.91
2022-08-27T10:27:11.963Z,28.91
2022-08-27T10:38:44.879Z,28.88
2022-08-27T10:42:01.116Z,28.87
2022-08-27T10:44:54.947Z,28.85
2022-08-27T10:47:51.219Z,28.81
2022-08-27T10:50:50.881Z,28.79
2022-08-27T10:53:35.728Z,28.76
2022-08-27T11:04:32.833Z,28.71
2022-08-27T11:07:11.204Z,28.71
2022-08-27T11:10:06.041Z,28.70
2022-08-27T11:12:42.371Z,28.69
2022-08-27T11:15:23.217Z,28.69
2022-08-27T11:18:01.509Z,28.69
2022-08-27T11:20:42.591Z,28.69
2022-08-27T11:26:07.441Z,28.66
2022-08-27T11:28:54.934Z,28.69
2022-08-27T11:31:56.189Z,28.70
2022-08-27T11:34:31.229Z,28.68
2022-08-27T11:37:11.600Z,28.70
2022-08-27T11:39:57.392Z,28.70
2022-08-27T11:42:44.886Z,28.70
2022-08-27T11:50:55.048Z,28.74
2022-08-27T11:53:52.023Z,28.73
2022-08-27T11:56:31.026Z,28.76
2022-08-27T11:59:21.484Z,28.77
2022-08-27T12:01:52.218Z,28.71
2022-08-27T12:04:32.203Z,28.75
2022-08-27T12:07:16.704Z,28.77
2022-08-27T12:14:15.033Z,28.81
2022-08-27T12:16:53.064Z,28.81
2022-08-27T12:19:57.809Z,28.85
2022-08-27T12:23:22.993Z,28.86
2022-08-27T12:26:13.043Z,28.89
2022-08-27T12:28:41.830Z,28.91
2022-08-27T12:33:54.586Z,29.06
2022-08-27T12:36:28.501Z,29.15
2022-08-27T12:39:03.638Z,29.23
2022-08-27T12:41:44.910Z,29.32
2022-08-27T12:44:22.979Z,29.39
2022-08-27T12:47:13.202Z,29.46
2022-08-27T12:50:13.114Z,29.52
2022-08-27T12:57:10.251Z,29.62
2022-08-27T13:00:00.727Z,29.72
2022-08-27T13:02:27.765Z,29.79
2022-08-27T13:04:55.483Z,29.90
2022-08-27T13:07:33.106Z,30.00
2022-08-27T13:10:36.421Z,30.03
2022-08-27T13:13:06.127Z,30.03
2022-08-27T13:20:01.957Z,30.03
2022-08-27T13:22:43.369Z,30.09
2022-08-27T13:25:30.696Z,30.12
2022-08-27T13:28:12.399Z,30.14
2022-08-27T13:30:46.093Z,30.17
2022-08-27T13:33:21.549Z,30.20
2022-08-27T13:35:51.250Z,30.25
2022-08-27T13:41:47.940Z,30.34
2022-08-27T13:44:27.379Z,30.39
2022-08-27T13:47:03.405Z,30.42
2022-08-27T13:49:37.439Z,30.46
2022-08-27T13:52:26.960Z,30.51
2022-08-27T13:55:07.640Z,30.58
2022-08-27T13:57:49.915Z,30.63
2022-08-27T14:06:03.493Z,30.74
2022-08-27T14:08:35.889Z,30.79
2022-08-27T14:11:07.976Z,30.86
2022-08-27T14:13:44.868Z,30.91
2022-08-27T14:16:33.639Z,31.01
2022-08-27T14:19:36.493Z,31.04
2022-08-27T14:22:05.241Z,31.04
2022-08-27T14:29:02.428Z,31.18
2022-08-27T14:31:31.187Z,31.25
2022-08-27T14:34:00.654Z,31.34
2022-08-27T14:36:32.517Z,31.50
2022-08-27T14:39:05.576Z,31.71
2022-08-27T14:41:33.949Z,31.84
2022-08-27T14:44:02.311Z,31.82
2022-08-27T14:50:02.389Z,31.78
2022-08-27T14:52:30.314Z,31.79
2022-08-27T14:54:57.644Z,31.64
2022-08-27T14:57:25.155Z,31.53
2022-08-27T14:59:52.490Z,31.58
2022-08-27T15:02:23.660Z,31.79
2022-08-27T15:04:51.380Z,31.95
2022-08-27T15:10:02.326Z,32.08
2022-08-27T15:12:30.971Z,32.20
2022-08-27T15:14:58.687Z,32.35
2022-08-27T15:17:34.514Z,32.60
2022-08-27T15:20:10.097Z,33.08
2022-08-27T15:22:44.362Z,33.67
2022-08-27T15:25:12.644Z,34.19
2022-08-27T15:30:31.218Z,34.68
2022-08-27T15:33:02.356Z,34.90
2022-08-27T15:35:30.662Z,35.12
2022-08-27T15:38:03.273Z,35.20
2022-08-27T15:40:35.608Z,35.50
2022-08-27T15:43:07.261Z,35.78
2022-08-27T15:45:36.911Z,36.12
2022-08-27T15:55:51.963Z,35.99
2022-08-27T15:58:21.343Z,36.21
2022-08-27T16:00:48.934Z,36.19
2022-08-27T16:03:35.604Z,36.39
2022-08-27T16:06:05.258Z,36.53
2022-08-27T16:08:36.854Z,36.66
2022-08-27T16:11:10.960Z,36.86
2022-08-27T16:18:27.157Z,37.14
2022-08-27T16:20:56.299Z,36.92
2022-08-27T16:23:26.025Z,36.94
2022-08-27T16:25:54.787Z,37.19
2022-08-27T16:28:24.119Z,37.57
2022-08-27T16:30:54.422Z,37.90
2022-08-27T16:33:23.766Z,38.02
2022-08-27T16:44:02.638Z,38.93
2022-08-27T16:46:31.041Z,39.18
2022-08-27T16:49:16.593Z,39.25
2022-08-27T16:51:44.883Z,39.44
2022-08-27T16:54:16.600Z,39.62
2022-08-27T16:56:46.336Z,39.52
2022-08-27T16:59:15.718Z,38.96
2022-08-27T17:01:45.940Z,38.40
2022-08-27T17:07:44.073Z,37.23
2022-08-27T17:10:18.513Z,36.92
2022-08-27T17:12:48.446Z,36.74
2022-08-27T17:15:18.088Z,36.70
2022-08-27T17:17:45.974Z,36.69
2022-08-27T17:20:15.436Z,36.86
2022-08-27T17:22:43.552Z,36.80
2022-08-27T17:28:45.256Z,36.56
2022-08-27T17:31:28.201Z,36.62
2022-08-27T17:33:59.401Z,36.57
2022-08-27T17:36:32.248Z,36.44
2022-08-27T17:39:03.509Z,36.29
2022-08-27T17:41:41.201Z,36.18
2022-08-27T17:44:27.514Z,36.03
2022-08-27T17:52:11.339Z,36.09
2022-08-27T17:54:52.286Z,36.21
2022-08-27T17:57:41.131Z,36.74
2022-08-27T18:00:13.121Z,37.19
2022-08-27T18:02:48.638Z,37.20
2022-08-27T18:05:26.308Z,37.12
2022-08-27T18:07:56.398Z,36.73
2022-08-27T18:15:06.769Z,36.14
2022-08-27T18:17:36.447Z,35.90
2022-08-27T18:20:11.346Z,35.86
2022-08-27T18:22:48.336Z,35.88
2022-08-27T18:25:27.372Z,35.88
2022-08-27T18:28:02.871Z,36.18
2022-08-27T18:30:32.113Z,36.28
2022-08-27T18:36:43.667Z,36.22
2022-08-27T18:39:12.321Z,36.59
2022-08-27T18:41:44.232Z,36.75
2022-08-27T18:44:17.619Z,36.69
2022-08-27T18:46:46.512Z,36.76
2022-08-27T18:49:14.226Z,36.67
2022-08-27T18:52:10.114Z,36.66
2022-08-27T20:08:19.386Z,37.89
2022-08-27T20:10:51.179Z,37.87
2022-08-27T20:13:19.675Z,37.88
2022-08-27T20:15:48.585Z,37.92
2022-08-27T20:18:21.369Z,37.78
2022-08-27T20:20:48.897Z,37.65
2022-08-27T20:23:16.287Z,37.58
2022-08-27T20:29:04.112Z,37.32
2022-08-27T20:31:33.472Z,37.27
2022-08-27T20:34:04.073Z,37.18
2022-08-27T20:36:34.861Z,37.08
2022-08-27T20:39:04.622Z,37.01
2022-08-27T20:41:33.306Z,37.04
2022-08-27T20:44:02.885Z,37.17
2022-08-27T20:52:01.854Z,37.38
2022-08-27T20:54:22.738Z,37.39
2022-08-27T20:56:53.237Z,37.49
2022-08-27T20:59:42.181Z,37.42
2022-08-27T21:02:13.958Z,37.30
2022-08-27T21:04:47.879Z,37.22
2022-08-27T21:07:17.109Z,37.33
2022-08-27T21:13:17.695Z,37.08
2022-08-27T21:15:45.459Z,36.93
2022-08-27T21:18:13.773Z,36.59
2022-08-27T21:20:43.206Z,36.34
2022-08-27T21:23:12.513Z,36.11
2022-08-27T21:25:42.538Z,35.90
2022-08-27T21:28:11.927Z,35.67
2022-08-27T21:33:21.952Z,35.54
2022-08-27T21:35:49.553Z,35.47
2022-08-27T21:38:18.838Z,35.34
2022-08-27T21:40:48.096Z,35.23
2022-08-27T21:43:15.727Z,35.10
2022-08-27T21:45:43.870Z,35.00
2022-08-27T21:48:13.365Z,34.90
2022-08-27T21:50:43.539Z,34.86
2022-08-27T21:58:17.074Z,34.59
2022-08-27T22:00:47.592Z,34.50
2022-08-27T22:03:18.469Z,34.50
2022-08-27T22:05:46.796Z,34.46
2022-08-27T22:08:16.092Z,34.47
2022-08-27T22:10:46.509Z,34.43
2022-08-27T22:13:14.733Z,34.34
2022-08-27T22:23:32.724Z,33.98
2022-08-27T22:26:02.106Z,33.94
2022-08-27T22:28:29.474Z,33.91
2022-08-27T22:30:58.959Z,33.84
2022-08-27T22:33:26.587Z,33.81
2022-08-27T22:35:54.169Z,33.79
2022-08-27T22:38:23.494Z,33.70
2022-08-27T22:43:36.386Z,33.41
2022-08-27T22:46:03.943Z,33.31
2022-08-27T22:48:33.090Z,33.25
2022-08-27T22:51:02.504Z,33.19
2022-08-27T22:53:34.616Z,33.17
2022-08-27T22:56:05.706Z,33.14
2022-08-27T22:58:33.825Z,33.13
2022-08-27T23:03:56.737Z,32.98
2022-08-27T23:06:24.330Z,32.93
2022-08-27T23:08:53.525Z,32.96
2022-08-27T23:11:22.869Z,32.88
2022-08-27T23:13:52.864Z,32.77
2022-08-27T23:16:22.609Z,32.67
2022-08-27T23:18:50.133Z,32.63
2022-08-27T23:29:07.514Z,32.52
2022-08-27T23:31:35.128Z,32.45
2022-08-27T23:34:04.541Z,32.39
2022-08-27T23:36:34.626Z,32.34
2022-08-27T23:39:03.739Z,32.28
2022-08-27T23:41:33.275Z,32.24
2022-08-27T23:44:02.681Z,32.19
2022-08-27T23:50:05.539Z,32.02
2022-08-27T23:52:34.255Z,31.95
2022-08-27T23:55:07.445Z,31.92
2022-08-27T23:57:35.346Z,31.89
